Aeroporto :
LOGIN :

Iscrizione | Disclaimer

   EN    FR    IT 

 










Sommario :    VFR   VFR Marginale   IFR   IFR Intensivo   IFR Molto Intensivo
Visibilità : 
Base nubi : 
>= 8 km
>= 3000ft
5 / 8 km
1000 / 3000 ft
1500m / 5 km
500 / 1000 ft
800 / 1500m
200 / 500 ft
< 800m
< 200 ft
Simboli :   Temporali  Nebbia  Neve Forte  Precipitazioni Forti  Vento > 20 kt
SIGMETs :   Varie  Temporali  Ghiacco  Turbolenza  Onda orograficha  Ceneri Vulcaniche







- Altitudine del aeroporto : 80 ft
- Codice IATA : LPL
- Carte del aeroporto


EGGP - Liverpool John Lennon

ULTIMO METAR :
  • 192220Z 29004KT CAVOK 10/08 Q1013

METARs OBSOLETI :
  • 192150Z 30005KT CAVOK 11/08 Q1013
  • 192120Z 29005KT CAVOK 11/08 Q1013
  • 192050Z 30006KT CAVOK 11/08 Q1013
  • 192020Z 30007KT CAVOK 12/08 Q1012
  • 191950Z 31009KT CAVOK 12/08 Q1012

TAF TAF EGGP
Valido dal 19 a 18 ore il 20 a 18 ore UTC


191657Z 1918/2018 31009KT 9999 FEW012 SCT030
TEMPO 1921/2012 FEW008 BKN012
PROB30
TEMPO 2000/2009 8000 BKN008
ATIS : +44 151 907 2000 (option 5 or ext 5150)
Met : +44 871 750 5150
Nessun NOTAM noto per questo aeroporto.



MetMap, La meteo Aeronautica in un colpo d'occhio ! - Copyright ORBIFLY Dicembre 2007 - Disclaimer

ORBIFLY MET'MAP TEAM :

Programmazione e sviluppo : Alexandra Zaïnal
Concezione e sviluppo : Baudouin d'Aumeries
Co-Programmazione e sviluppo : Marc-Olivier Méhu
Supporto tecnico e logistico : Manuel Goepfert
Aiuto per la traduzione : Arnaldo La Scala

Contatto : metmap@orbifly.com




FONTI E CREDITI :

   NOAA